Terminal Aerodrome Forecast
Issued by NWS Portland, ME

Home | Current Version | Previous Version | Text Only | Print | Product List | Glossary On
Versions: 1 2 3 4 5 6 7 8 9 10 11 12 13 14 15 16 17 18 19 20 21 22 23 24
000
FTUS41 KGYX 191741 AAA
TAFPWM
TAF AMD
KPWM 191741Z 1918/2018 30005KT P6SM SCT018
     FM191900 16008KT P6SM SCT040
     FM200200 28005KT P6SM SCT040
     FM201500 30008G15KT P6SM SCT050=

USA.gov is the U.S. government's official web portal to all federal, state and local government web resources and services.